Pelik — PELIK — position and weather

sailwx.info

Track history (hours):
 
Tides and Currents Weather Stations Pressure Air Temp Water Temp Dewpoint Dewpoint Depression Visibility Wind Speed Wind Dir Waves Ship Positions

Pelik

Last reported at 2018-Jun-20 20:30 UTC. Time now 2018-Jun-20 20:38 UTC.
Position N 47°49' E 035°10'.

Length 12 m; draft 1.6 m.

Type: Tug. MMSI: 272157100.

Date/timePositionNaut miles runAvg speedWind from/ knotsBaromVisibWave heightAir tempDewpointWater temp
2018-Jun-20 20:30N 47°49' E 035°10'0 0.0
2018-Jun-20 20:00N 47°49' E 035°10'0 0.0
2018-Jun-20 19:30N 47°49' E 035°10'0 0.0
2018-Jun-20 19:00N 47°49' E 035°10'0 0.0
2018-Jun-20 18:30N 47°49' E 035°10'0 0.0
2018-Jun-20 18:00N 47°49' E 035°10'0 0.0
2018-Jun-20 17:29N 47°49' E 035°10'0 0.1
2018-Jun-20 17:00N 47°49' E 035°10'0 0.1
2018-Jun-20 16:30N 47°49' E 035°10'1 1.5
2018-Jun-20 16:00N 47°48' E 035°10'1 2.1
2018-Jun-20 15:30N 47°47' E 035°09'1 2.1
2018-Jun-20 15:00N 47°46' E 035°10'1 2.2
2018-Jun-20 14:30N 47°45' E 035°10'1 2.3
2018-Jun-20 14:00N 47°44' E 035°10'1 2.4
2018-Jun-20 13:30N 47°43' E 035°08'1 2.1
2018-Jun-20 13:00N 47°42' E 035°08'1 2.2
2018-Jun-20 12:30N 47°41' E 035°07'2 0.1
2018-Jun-19 13:38N 47°39' E 035°07'1 3.6
2018-Jun-19 13:28N 47°39' E 035°07'2 3.7
2018-Jun-19 12:59N 47°41' E 035°08'2 3.5
2018-Jun-19 12:31N 47°43' E 035°08'2 3.3
2018-Jun-19 12:00N 47°44' E 035°10'2 3.4
2018-Jun-19 11:31N 47°46' E 035°09'2 3.4
2018-Jun-19 11:01N 47°47' E 035°10'1 1.8
2018-Jun-19 10:30N 47°48' E 035°09'0 0.3
2018-Jun-19 10:01N 47°48' E 035°10'0 0.2
2018-Jun-19 09:31N 47°48' E 035°10'0 0.6
2018-Jun-19 09:00N 47°49' E 035°10'0 0.0
2018-Jun-19 08:30N 47°49' E 035°10'0 0.0
2018-Jun-19 08:00N 47°49' E 035°10'0 0.0
2018-Jun-19 07:28N 47°49' E 035°10'1 2.3
2018-Jun-19 07:01N 47°48' E 035°10'1 2.3
2018-Jun-19 06:31N 47°49' E 035°10'0 0.2
2018-Jun-19 06:01N 47°49' E 035°10'0 0.0
2018-Jun-19 05:29N 47°49' E 035°10'0 0.0
2018-Jun-19 05:01N 47°49' E 035°10'0 0.0
2018-Jun-19 04:30N 47°49' E 035°10'0 0.0
2018-Jun-19 04:01N 47°49' E 035°10'0 0.0
2018-Jun-19 03:31N 47°49' E 035°10'0 0.0
2018-Jun-19 03:01N 47°49' E 035°10'0 0.0
2018-Jun-19 02:31N 47°49' E 035°10'0 0.0
2018-Jun-19 02:01N 47°49' E 035°10'0 0.0
2018-Jun-19 01:29N 47°49' E 035°10'0 0.0
2018-Jun-19 01:00N 47°49' E 035°10'0 0.0
2018-Jun-19 00:30N 47°49' E 035°10'0 0.0
2018-Jun-19 00:00N 47°49' E 035°10'0 0.0
2018-Jun-18 23:30N 47°49' E 035°10'0 0.0
2018-Jun-18 23:01N 47°49' E 035°10'0 0.0
2018-Jun-18 22:30N 47°49' E 035°10'0 0.0
2018-Jun-18 22:00N 47°49' E 035°10'0 0.0
2018-Jun-18 21:30N 47°49' E 035°10'0 0.0
2018-Jun-18 21:00N 47°49' E 035°10'0 0.0
2018-Jun-18 20:31N 47°49' E 035°10'0 0.2
2018-Jun-18 20:01N 47°49' E 035°10'0 0.9
2018-Jun-18 19:31N 47°48' E 035°10'1 1.8
2018-Jun-18 19:00N 47°47' E 035°10'1 2.3
2018-Jun-18 18:31N 47°46' E 035°09'1 2.2
2018-Jun-18 18:00N 47°45' E 035°10'1 2.2
2018-Jun-18 17:30N 47°44' E 035°10'1 2.1
2018-Jun-18 17:00N 47°43' E 035°09'1 2.1
2018-Jun-18 16:31N 47°42' E 035°08'1 2.1
2018-Jun-18 15:59N 47°41' E 035°08'1 2.4
2018-Jun-18 15:30N 47°40' E 035°07'0 0.0
2018-Jun-17 10:08N 47°40' E 035°07'1 7.3
2018-Jun-17 09:59N 47°41' E 035°08'3 7.0
2018-Jun-17 09:31N 47°44' E 035°10'4 7.1
2018-Jun-17 09:01N 47°48' E 035°10'1 2.3
2018-Jun-17 08:30N 47°49' E 035°10'0 0.0
2018-Jun-17 08:00N 47°49' E 035°10'0 0.0
2018-Jun-17 07:31N 47°49' E 035°10'0 0.0
2018-Jun-17 07:00N 47°49' E 035°10'0 0.0
2018-Jun-17 06:31N 47°49' E 035°10'0 0.0
2018-Jun-17 05:59N 47°49' E 035°10'0 0.0
2018-Jun-17 05:30N 47°49' E 035°10'0 0.0
2018-Jun-17 05:01N 47°49' E 035°10'0 0.0
2018-Jun-17 04:31N 47°49' E 035°10'0 0.0
2018-Jun-17 04:01N 47°49' E 035°10'0 0.0
2018-Jun-17 03:31N 47°49' E 035°10'0 0.0
2018-Jun-17 03:01N 47°49' E 035°10'0 0.0
2018-Jun-17 02:30N 47°49' E 035°10'0 0.0
2018-Jun-17 02:00N 47°49' E 035°10'0 0.0
2018-Jun-17 01:30N 47°49' E 035°10'0 0.0
2018-Jun-17 01:00N 47°49' E 035°10'0 0.0
2018-Jun-17 00:31N 47°49' E 035°10'0 0.0
2018-Jun-17 00:01N 47°49' E 035°10'0 0.0
2018-Jun-16 23:31N 47°49' E 035°10'0 0.0
2018-Jun-16 23:00N 47°49' E 035°10'0 0.0
2018-Jun-16 22:31N 47°49' E 035°10'0 0.0
2018-Jun-16 22:00N 47°49' E 035°10'0 0.0
2018-Jun-16 21:31N 47°49' E 035°10'0 0.0
2018-Jun-16 21:01N 47°49' E 035°10'0 0.0
2018-Jun-16 20:31N 47°49' E 035°10'0 0.0
2018-Jun-16 20:00N 47°49' E 035°10'0 0.0
2018-Jun-16 19:31N 47°49' E 035°10'0 0.0
2018-Jun-16 19:00N 47°49' E 035°10'0 0.0
2018-Jun-16 18:30N 47°49' E 035°10'0 0.0
2018-Jun-16 18:00N 47°49' E 035°10'0 0.2
2018-Jun-16 17:30N 47°49' E 035°10'0 0.0
2018-Jun-16 17:01N 47°49' E 035°10'1 1.7
2018-Jun-16 16:31N 47°48' E 035°10'1 2.3
2018-Jun-16 16:00N 47°47' E 035°09'1 2.3
2018-Jun-16 15:30N 47°45' E 035°10'1 2.2
2018-Jun-16 15:01N 47°44' E 035°10'1 2.2
2018-Jun-16 14:31N 47°43' E 035°09'1 2.2
2018-Jun-16 14:01N 47°43' E 035°08'1 2.1
2018-Jun-16 13:30N 47°42' E 035°08'1 2.1
2018-Jun-16 12:59N 47°40' E 035°07'1 2.0
2018-Jun-16 12:29N 47°40' E 035°07'4 1.2
2018-Jun-16 08:54N 47°36' E 035°02'0 0.0
2018-Jun-16 08:29N 47°36' E 035°02'0 0.3
2018-Jun-16 07:26N 47°36' E 035°02'1 1.7
2018-Jun-16 06:46N 47°35' E 035°03'2 0.1
2018-Jun-15 19:35N 47°37' E 035°03'0 1.6
2018-Jun-15 19:21N 47°37' E 035°02'1 2.1
2018-Jun-15 19:00N 47°37' E 035°03'4 3.1
2018-Jun-15 17:49N 47°40' E 035°07'1 3.4
2018-Jun-15 17:29N 47°41' E 035°08'2 3.4
2018-Jun-15 17:00N 47°42' E 035°08'2 3.2
2018-Jun-15 16:30N 47°43' E 035°09'2 3.3
2018-Jun-15 16:00N 47°45' E 035°10'2 3.4
2018-Jun-15 15:30N 47°47' E 035°09'2 3.5
2018-Jun-15 15:00N 47°49' E 035°10'0 0.5
2018-Jun-15 14:30N 47°48' E 035°09'0 1.0
2018-Jun-15 14:00N 47°49' E 035°10'0 1.0
2018-Jun-15 13:30N 47°48' E 035°10'0 0.9
2018-Jun-15 13:00N 47°49' E 035°10'0 0.3
2018-Jun-15 12:30N 47°49' E 035°10'0 0.0
2018-Jun-15 12:00N 47°49' E 035°10'0 0.2
2018-Jun-15 11:30N 47°49' E 035°10'0 0.5
2018-Jun-15 11:00N 47°49' E 035°10'0 0.2
2018-Jun-15 10:30N 47°49' E 035°10'0 0.5
2018-Jun-15 10:00N 47°49' E 035°10'0 0.0
2018-Jun-15 09:30N 47°49' E 035°10'0 0.0
2018-Jun-15 09:00N 47°49' E 035°10'0 0.0
2018-Jun-15 08:30N 47°49' E 035°10'0 0.0
2018-Jun-15 07:57N 47°49' E 035°10'0 0.0
2018-Jun-15 07:30N 47°49' E 035°10'0 0.0
2018-Jun-15 07:00N 47°49' E 035°10'0 0.0
2018-Jun-15 06:30N 47°49' E 035°10'0 0.0
2018-Jun-15 06:00N 47°49' E 035°10'0 0.0
2018-Jun-15 05:27N 47°49' E 035°10'0 0.0
2018-Jun-15 05:00N 47°49' E 035°10'0 0.0
2018-Jun-15 04:30N 47°49' E 035°10'0 0.0
2018-Jun-15 04:00N 47°49' E 035°10'0 0.0
2018-Jun-15 03:30N 47°49' E 035°10'0 0.0
2018-Jun-15 03:00N 47°49' E 035°10'0 0.0
2018-Jun-15 02:30N 47°49' E 035°10'0 0.0
2018-Jun-15 02:00N 47°49' E 035°10'0 0.0
2018-Jun-15 01:30N 47°49' E 035°10'0 0.0
2018-Jun-15 01:00N 47°49' E 035°10'0 0.0
2018-Jun-15 00:30N 47°49' E 035°10'0 0.0
2018-Jun-15 00:00N 47°49' E 035°10'0 0.0
2018-Jun-14 23:30N 47°49' E 035°10'0 0.0
2018-Jun-14 23:00N 47°49' E 035°10'0 0.0
2018-Jun-14 22:30N 47°49' E 035°10'0 0.0
2018-Jun-14 22:00N 47°49' E 035°10'0 0.0
2018-Jun-14 21:30N 47°49' E 035°10'0 0.0
2018-Jun-14 21:00N 47°49' E 035°10'0 0.0
2018-Jun-14 20:29N 47°49' E 035°10'0 0.0
2018-Jun-14 20:00N 47°49' E 035°10'0 0.0
2018-Jun-14 19:30N 47°49' E 035°10'0 0.0
2018-Jun-14 19:00N 47°49' E 035°10'0 0.0
2018-Jun-14 18:30N 47°49' E 035°10'0 0.0
2018-Jun-14 18:00N 47°49' E 035°10'0 0.0
2018-Jun-14 17:30N 47°49' E 035°10'0 0.0
2018-Jun-14 17:00N 47°49' E 035°10'0 0.0
2018-Jun-14 16:30N 47°49' E 035°10'0 0.0
2018-Jun-14 16:00N 47°49' E 035°10'0 0.0
2018-Jun-14 15:30N 47°49' E 035°10'0 0.0
2018-Jun-14 15:00N 47°49' E 035°10'0 0.0
2018-Jun-14 14:30N 47°49' E 035°10'0 0.0
2018-Jun-14 13:59N 47°49' E 035°10'0 0.0
2018-Jun-14 13:28N 47°49' E 035°10'0 0.0
2018-Jun-14 13:00N 47°49' E 035°10'0 0.0
2018-Jun-14 12:30N 47°49' E 035°10'0 0.0
2018-Jun-14 12:00N 47°49' E 035°10'0 0.0
2018-Jun-14 11:30N 47°49' E 035°10'0 0.0
2018-Jun-14 11:00N 47°49' E 035°10'0 0.0
2018-Jun-14 10:30N 47°49' E 035°10'0 0.2
2018-Jun-14 10:00N 47°49' E 035°10'0 0.0
2018-Jun-14 09:30N 47°49' E 035°10'0 0.0
2018-Jun-14 09:00N 47°49' E 035°10'0 0.0
2018-Jun-14 08:30N 47°49' E 035°10'0 0.0
2018-Jun-14 08:00N 47°49' E 035°10'0 0.0
2018-Jun-14 07:30N 47°49' E 035°10'0 0.4
2018-Jun-14 07:00N 47°49' E 035°10'0 0.0
2018-Jun-14 06:30N 47°49' E 035°10'0 0.0
2018-Jun-14 05:59N 47°49' E 035°10'0 0.5
2018-Jun-14 05:30N 47°49' E 035°10'0 0.0
2018-Jun-14 05:00N 47°49' E 035°10'0 0.0
2018-Jun-14 04:30N 47°49' E 035°10'0 0.0
2018-Jun-14 04:00N 47°49' E 035°10'0 0.0
2018-Jun-14 03:30N 47°49' E 035°10'0 0.0
2018-Jun-14 03:00N 47°49' E 035°10'0 0.0
2018-Jun-14 02:30N 47°49' E 035°10'0 0.0
2018-Jun-14 01:59N 47°49' E 035°10'0 0.0
2018-Jun-14 01:29N 47°49' E 035°10'0 0.0
2018-Jun-14 01:00N 47°49' E 035°10'0 0.0
2018-Jun-14 00:30N 47°49' E 035°10'0 0.0
2018-Jun-14 00:00N 47°49' E 035°10'0 0.0
2018-Jun-13 23:29N 47°49' E 035°10'0 0.0
2018-Jun-13 23:00N 47°49' E 035°10'0 0.0
2018-Jun-13 22:30N 47°49' E 035°10'0 0.0
2018-Jun-13 22:00N 47°49' E 035°10'0 0.0
2018-Jun-13 21:30N 47°49' E 035°10'0 0.0
2018-Jun-13 21:00N 47°49' E 035°10'0 0.0
2018-Jun-13 20:30N 47°49' E 035°10'0 0.0
2018-Jun-13 20:00N 47°49' E 035°10'0 0.0
2018-Jun-13 19:30N 47°49' E 035°10'0 0.0
2018-Jun-13 19:00N 47°49' E 035°10'0 0.0
2018-Jun-13 18:28N 47°49' E 035°10'0 0.0
2018-Jun-13 17:58N 47°49' E 035°10'0 0.0
2018-Jun-13 17:27N 47°49' E 035°10'0 0.5
2018-Jun-13 17:00N 47°48' E 035°10'0 0.1
2018-Jun-13 16:30N 47°48' E 035°10'0 0.5
2018-Jun-13 15:58N 47°48' E 035°10'0 1.0
2018-Jun-13 15:30N 47°49' E 035°10'0 0.2
2018-Jun-13 15:00N 47°48' E 035°10'0 0.4
2018-Jun-13 14:30N 47°48' E 035°10'0 0.0
2018-Jun-13 14:00N 47°48' E 035°10'0 0.5
2018-Jun-13 13:30N 47°49' E 035°10'0 0.0
2018-Jun-13 13:00N 47°49' E 035°10'0 0.2
2018-Jun-13 12:29N 47°49' E 035°10'0 0.0
2018-Jun-13 12:00N 47°49' E 035°10'0 0.0
2018-Jun-13 11:30N 47°49' E 035°10'0 0.3
2018-Jun-13 11:00N 47°49' E 035°10'0 0.3
2018-Jun-13 10:30N 47°49' E 035°10'0 0.0
2018-Jun-13 09:59N 47°49' E 035°10'0 0.0
2018-Jun-13 09:30N 47°49' E 035°10'0 0.0
2018-Jun-13 09:00N 47°49' E 035°10'0 0.0
2018-Jun-13 08:30N 47°49' E 035°10'0 0.0
2018-Jun-13 08:00N 47°49' E 035°10'0 0.0
2018-Jun-13 07:30N 47°49' E 035°10'0 0.0
2018-Jun-13 07:00N 47°49' E 035°10'0 0.0
2018-Jun-13 06:30N 47°49' E 035°10'0 0.0
2018-Jun-13 06:00N 47°49' E 035°10'0 0.0
2018-Jun-13 05:30N 47°49' E 035°10'0 0.0
2018-Jun-13 05:00N 47°49' E 035°10'0 0.0
2018-Jun-13 04:30N 47°49' E 035°10'0 0.0
2018-Jun-13 04:00N 47°49' E 035°10'0 0.0
2018-Jun-13 03:30N 47°49' E 035°10'0 0.0
2018-Jun-13 03:00N 47°49' E 035°10'0 0.0
2018-Jun-13 02:30N 47°49' E 035°10'0 0.0
2018-Jun-13 02:00N 47°49' E 035°10'0 0.0
2018-Jun-13 01:30N 47°49' E 035°10'0 0.0
2018-Jun-13 00:58N 47°49' E 035°10'0 0.0
2018-Jun-13 00:30N 47°49' E 035°10'0 0.0
2018-Jun-12 23:58N 47°49' E 035°10'0 0.0
2018-Jun-12 23:30N 47°49' E 035°10'0 0.0
2018-Jun-12 23:00N 47°49' E 035°10'0 0.0
2018-Jun-12 22:30N 47°49' E 035°10'0 0.5
2018-Jun-12 22:00N 47°48' E 035°10'0 0.5
2018-Jun-12 21:30N 47°49' E 035°10'0 0.0
2018-Jun-12 21:00N 47°49' E 035°10'0 0.0
2018-Jun-12 20:30N 47°49' E 035°10'0 0.0
2018-Jun-12 20:00N 47°49' E 035°10'0 0.0
2018-Jun-12 19:30N 47°49' E 035°10'0 0.0
2018-Jun-12 19:00N 47°49' E 035°10'0 0.0
2018-Jun-12 18:30N 47°49' E 035°10'0 0.0
2018-Jun-12 18:00N 47°49' E 035°10'0 0.0
2018-Jun-12 17:30N 47°49' E 035°10'0 0.0
2018-Jun-12 17:00N 47°49' E 035°10'0 0.0
2018-Jun-12 16:30N 47°49' E 035°10'0 0.0
2018-Jun-12 16:00N 47°49' E 035°10'0 0.0
2018-Jun-12 15:30N 47°49' E 035°10'0 0.0
2018-Jun-12 15:00N 47°49' E 035°10'0 0.0
2018-Jun-12 14:30N 47°49' E 035°10'0 0.0
2018-Jun-12 14:00N 47°49' E 035°10'0 0.0
2018-Jun-12 13:30N 47°49' E 035°10'0 0.0
2018-Jun-12 13:00N 47°49' E 035°10'0 0.3
2018-Jun-12 12:30N 47°49' E 035°10'0 0.6
2018-Jun-12 12:00N 47°49' E 035°10'0 0.1
2018-Jun-12 11:30N 47°49' E 035°10'0 0.6
2018-Jun-12 11:00N 47°49' E 035°10'0 0.0
2018-Jun-12 10:30N 47°49' E 035°10'0 0.3
2018-Jun-12 10:00N 47°49' E 035°10'0 0.2
2018-Jun-12 09:30N 47°49' E 035°10'0 0.2
2018-Jun-12 09:00N 47°49' E 035°10'0 0.0
2018-Jun-12 08:30N 47°49' E 035°10'0 0.0
2018-Jun-12 08:00N 47°49' E 035°10'0 0.0
2018-Jun-12 07:30N 47°49' E 035°10'0 0.0
2018-Jun-12 07:00N 47°49' E 035°10'0 0.4
2018-Jun-12 06:30N 47°48' E 035°10'0 0.0
2018-Jun-12 06:00N 47°48' E 035°10'0 0.3
2018-Jun-12 05:30N 47°49' E 035°10'0 0.0
2018-Jun-12 05:00N 47°49' E 035°10'0 0.0
2018-Jun-12 04:30N 47°49' E 035°10'0 0.0
2018-Jun-12 03:59N 47°49' E 035°10'0 0.0
2018-Jun-12 03:30N 47°49' E 035°10'0 0.0
2018-Jun-12 03:00N 47°49' E 035°10'0 0.0
2018-Jun-12 02:30N 47°49' E 035°10'0 0.0
2018-Jun-12 02:00N 47°49' E 035°10'0 0.0
2018-Jun-12 01:29N 47°49' E 035°10'0 0.0
2018-Jun-12 01:00N 47°49' E 035°10'0 0.0
2018-Jun-12 00:30N 47°49' E 035°10'0 0.0
2018-Jun-12 00:00N 47°49' E 035°10'0 0.0
2018-Jun-11 23:30N 47°49' E 035°10'0 0.1
2018-Jun-11 23:00N 47°49' E 035°10'0 0.1
2018-Jun-11 22:30N 47°49' E 035°10'0 0.0
2018-Jun-11 22:00N 47°49' E 035°10'0 0.0
2018-Jun-11 21:30N 47°49' E 035°10'0 0.0
2018-Jun-11 21:00N 47°49' E 035°10'0 0.0
2018-Jun-11 20:30N 47°49' E 035°10'0 0.0
2018-Jun-11 20:00N 47°49' E 035°10'0 0.0
2018-Jun-11 19:30N 47°49' E 035°10'0 0.0
2018-Jun-11 19:00N 47°49' E 035°10'0 0.0
2018-Jun-11 18:30N 47°49' E 035°10'0 0.0
2018-Jun-11 18:00N 47°49' E 035°10'0 0.0
2018-Jun-11 17:30N 47°49' E 035°10'0 0.0
2018-Jun-11 17:00N 47°49' E 035°10'0 0.0
2018-Jun-11 16:30N 47°49' E 035°10'0 0.0
2018-Jun-11 16:00N 47°49' E 035°10'0 0.0
2018-Jun-11 15:30N 47°49' E 035°10'0 0.0
2018-Jun-11 14:59N 47°49' E 035°10'0 0.0
2018-Jun-11 14:30N 47°49' E 035°10'0 0.0
2018-Jun-11 14:00N 47°49' E 035°10'0 0.0
2018-Jun-11 13:30N 47°49' E 035°10'0 0.3
2018-Jun-11 13:00N 47°49' E 035°10'0 0.2
2018-Jun-11 12:30N 47°49' E 035°10'0 0.0
2018-Jun-11 12:00N 47°49' E 035°10'0 0.2
2018-Jun-11 11:30N 47°49' E 035°10'0 0.2
2018-Jun-11 11:00N 47°49' E 035°10'0 0.5
2018-Jun-11 10:30N 47°49' E 035°10'0 0.1
2018-Jun-11 10:00N 47°49' E 035°10'0 0.0
2018-Jun-11 09:26N 47°49' E 035°10'0 0.0
2018-Jun-11 09:00N 47°49' E 035°10'0 0.0
2018-Jun-11 08:30N 47°49' E 035°10'0 0.0
2018-Jun-11 08:00N 47°49' E 035°10'0 0.0
2018-Jun-11 07:30N 47°49' E 035°10'0 0.0
2018-Jun-11 07:00N 47°49' E 035°10'0 0.0
2018-Jun-11 06:30N 47°49' E 035°10'0 0.0
2018-Jun-11 06:00N 47°49' E 035°10'0 0.0
2018-Jun-11 05:30N 47°49' E 035°10'0 0.0
2018-Jun-11 05:00N 47°49' E 035°10'0 0.0
2018-Jun-11 04:30N 47°49' E 035°10'0 0.0
2018-Jun-11 04:00N 47°49' E 035°10'0 0.0
2018-Jun-11 03:30N 47°49' E 035°10'0 0.0
2018-Jun-11 03:00N 47°49' E 035°10'0 0.0
2018-Jun-11 02:29N 47°49' E 035°10'0 0.0
2018-Jun-11 01:57N 47°49' E 035°10'0 0.0
2018-Jun-11 01:30N 47°49' E 035°10'0 0.0
2018-Jun-11 01:00N 47°49' E 035°10'0 0.0
2018-Jun-11 00:30N 47°49' E 035°10'0 0.0
2018-Jun-11 00:00N 47°49' E 035°10'0 0.0
2018-Jun-10 23:30N 47°49' E 035°10'0 0.0
2018-Jun-10 23:00N 47°49' E 035°10'0 0.0
2018-Jun-10 22:30N 47°49' E 035°10'0 0.0
2018-Jun-10 22:00N 47°49' E 035°10'0 0.2
2018-Jun-10 21:30N 47°49' E 035°10'0 0.2
2018-Jun-10 21:00N 47°49' E 035°10'0 0.0
2018-Jun-10 20:30N 47°49' E 035°10'  
Track history (hours):
 
Tides and Currents Weather Stations Pressure Air Temp Water Temp Dewpoint Dewpoint Depression Visibility Wind Speed Wind Dir Waves Ship Positions

Pelik

Last reported at 2018-Jun-20 20:30 UTC. Time now 2018-Jun-20 20:38 UTC.
Position N 47°49' E 035°10'.

Length 12 m; draft 1.6 m.

Type: Tug. MMSI: 272157100.

Date/timePositionNaut miles runAvg speedWind from/ knotsBaromVisibWave heightAir tempDewpointWater temp
2018-Jun-20 20:30N 47°49' E 035°10'0 0.0
2018-Jun-20 20:00N 47°49' E 035°10'0 0.0
2018-Jun-20 19:30N 47°49' E 035°10'0 0.0
2018-Jun-20 19:00N 47°49' E 035°10'0 0.0
2018-Jun-20 18:30N 47°49' E 035°10'0 0.0
2018-Jun-20 18:00N 47°49' E 035°10'0 0.0
2018-Jun-20 17:29N 47°49' E 035°10'0 0.1
2018-Jun-20 17:00N 47°49' E 035°10'0 0.1
2018-Jun-20 16:30N 47°49' E 035°10'1 1.5
2018-Jun-20 16:00N 47°48' E 035°10'1 2.1
2018-Jun-20 15:30N 47°47' E 035°09'1 2.1
2018-Jun-20 15:00N 47°46' E 035°10'1 2.2
2018-Jun-20 14:30N 47°45' E 035°10'1 2.3
2018-Jun-20 14:00N 47°44' E 035°10'1 2.4
2018-Jun-20 13:30N 47°43' E 035°08'1 2.1
2018-Jun-20 13:00N 47°42' E 035°08'1 2.2
2018-Jun-20 12:30N 47°41' E 035°07'2 0.1
2018-Jun-19 13:38N 47°39' E 035°07'1 3.6
2018-Jun-19 13:28N 47°39' E 035°07'2 3.7
2018-Jun-19 12:59N 47°41' E 035°08'2 3.5
2018-Jun-19 12:31N 47°43' E 035°08'2 3.3
2018-Jun-19 12:00N 47°44' E 035°10'2 3.4
2018-Jun-19 11:31N 47°46' E 035°09'2 3.4
2018-Jun-19 11:01N 47°47' E 035°10'1 1.8
2018-Jun-19 10:30N 47°48' E 035°09'0 0.3
2018-Jun-19 10:01N 47°48' E 035°10'0 0.2
2018-Jun-19 09:31N 47°48' E 035°10'0 0.6
2018-Jun-19 09:00N 47°49' E 035°10'0 0.0
2018-Jun-19 08:30N 47°49' E 035°10'0 0.0
2018-Jun-19 08:00N 47°49' E 035°10'0 0.0
2018-Jun-19 07:28N 47°49' E 035°10'1 2.3
2018-Jun-19 07:01N 47°48' E 035°10'1 2.3
2018-Jun-19 06:31N 47°49' E 035°10'0 0.2
2018-Jun-19 06:01N 47°49' E 035°10'0 0.0
2018-Jun-19 05:29N 47°49' E 035°10'0 0.0
2018-Jun-19 05:01N 47°49' E 035°10'0 0.0
2018-Jun-19 04:30N 47°49' E 035°10'0 0.0
2018-Jun-19 04:01N 47°49' E 035°10'0 0.0
2018-Jun-19 03:31N 47°49' E 035°10'0 0.0
2018-Jun-19 03:01N 47°49' E 035°10'0 0.0
2018-Jun-19 02:31N 47°49' E 035°10'0 0.0
2018-Jun-19 02:01N 47°49' E 035°10'0 0.0
2018-Jun-19 01:29N 47°49' E 035°10'0 0.0
2018-Jun-19 01:00N 47°49' E 035°10'0 0.0
2018-Jun-19 00:30N 47°49' E 035°10'0 0.0
2018-Jun-19 00:00N 47°49' E 035°10'0 0.0
2018-Jun-18 23:30N 47°49' E 035°10'0 0.0
2018-Jun-18 23:01N 47°49' E 035°10'0 0.0
2018-Jun-18 22:30N 47°49' E 035°10'0 0.0
2018-Jun-18 22:00N 47°49' E 035°10'0 0.0
2018-Jun-18 21:30N 47°49' E 035°10'0 0.0
2018-Jun-18 21:00N 47°49' E 035°10'0 0.0
2018-Jun-18 20:31N 47°49' E 035°10'0 0.2
2018-Jun-18 20:01N 47°49' E 035°10'0 0.9
2018-Jun-18 19:31N 47°48' E 035°10'1 1.8
2018-Jun-18 19:00N 47°47' E 035°10'1 2.3
2018-Jun-18 18:31N 47°46' E 035°09'1 2.2
2018-Jun-18 18:00N 47°45' E 035°10'1 2.2
2018-Jun-18 17:30N 47°44' E 035°10'1 2.1
2018-Jun-18 17:00N 47°43' E 035°09'1 2.1
2018-Jun-18 16:31N 47°42' E 035°08'1 2.1
2018-Jun-18 15:59N 47°41' E 035°08'1 2.4
2018-Jun-18 15:30N 47°40' E 035°07'0 0.0
2018-Jun-17 10:08N 47°40' E 035°07'1 7.3
2018-Jun-17 09:59N 47°41' E 035°08'3 7.0
2018-Jun-17 09:31N 47°44' E 035°10'4 7.1
2018-Jun-17 09:01N 47°48' E 035°10'1 2.3
2018-Jun-17 08:30N 47°49' E 035°10'0 0.0
2018-Jun-17 08:00N 47°49' E 035°10'0 0.0
2018-Jun-17 07:31N 47°49' E 035°10'0 0.0
2018-Jun-17 07:00N 47°49' E 035°10'0 0.0
2018-Jun-17 06:31N 47°49' E 035°10'0 0.0
2018-Jun-17 05:59N 47°49' E 035°10'0 0.0
2018-Jun-17 05:30N 47°49' E 035°10'0 0.0
2018-Jun-17 05:01N 47°49' E 035°10'0 0.0
2018-Jun-17 04:31N 47°49' E 035°10'0 0.0
2018-Jun-17 04:01N 47°49' E 035°10'0 0.0
2018-Jun-17 03:31N 47°49' E 035°10'0 0.0
2018-Jun-17 03:01N 47°49' E 035°10'0 0.0
2018-Jun-17 02:30N 47°49' E 035°10'0 0.0
2018-Jun-17 02:00N 47°49' E 035°10'0 0.0
2018-Jun-17 01:30N 47°49' E 035°10'0 0.0
2018-Jun-17 01:00N 47°49' E 035°10'0 0.0
2018-Jun-17 00:31N 47°49' E 035°10'0 0.0
2018-Jun-17 00:01N 47°49' E 035°10'0 0.0
2018-Jun-16 23:31N 47°49' E 035°10'0 0.0
2018-Jun-16 23:00N 47°49' E 035°10'0 0.0
2018-Jun-16 22:31N 47°49' E 035°10'0 0.0
2018-Jun-16 22:00N 47°49' E 035°10'0 0.0
2018-Jun-16 21:31N 47°49' E 035°10'0 0.0
2018-Jun-16 21:01N 47°49' E 035°10'0 0.0
2018-Jun-16 20:31N 47°49' E 035°10'0 0.0
2018-Jun-16 20:00N 47°49' E 035°10'0 0.0
2018-Jun-16 19:31N 47°49' E 035°10'0 0.0
2018-Jun-16 19:00N 47°49' E 035°10'0 0.0
2018-Jun-16 18:30N 47°49' E 035°10'0 0.0
2018-Jun-16 18:00N 47°49' E 035°10'0 0.2
2018-Jun-16 17:30N 47°49' E 035°10'0 0.0
2018-Jun-16 17:01N 47°49' E 035°10'1 1.7
2018-Jun-16 16:31N 47°48' E 035°10'1 2.3
2018-Jun-16 16:00N 47°47' E 035°09'1 2.3
2018-Jun-16 15:30N 47°45' E 035°10'1 2.2
2018-Jun-16 15:01N 47°44' E 035°10'1 2.2
2018-Jun-16 14:31N 47°43' E 035°09'1 2.2
2018-Jun-16 14:01N 47°43' E 035°08'1 2.1
2018-Jun-16 13:30N 47°42' E 035°08'1 2.1
2018-Jun-16 12:59N 47°40' E 035°07'1 2.0
2018-Jun-16 12:29N 47°40' E 035°07'4 1.2
2018-Jun-16 08:54N 47°36' E 035°02'0 0.0
2018-Jun-16 08:29N 47°36' E 035°02'0 0.3
2018-Jun-16 07:26N 47°36' E 035°02'1 1.7
2018-Jun-16 06:46N 47°35' E 035°03'2 0.1
2018-Jun-15 19:35N 47°37' E 035°03'0 1.6
2018-Jun-15 19:21N 47°37' E 035°02'1 2.1
2018-Jun-15 19:00N 47°37' E 035°03'4 3.1
2018-Jun-15 17:49N 47°40' E 035°07'1 3.4
2018-Jun-15 17:29N 47°41' E 035°08'2 3.4
2018-Jun-15 17:00N 47°42' E 035°08'2 3.2
2018-Jun-15 16:30N 47°43' E 035°09'2 3.3
2018-Jun-15 16:00N 47°45' E 035°10'2 3.4
2018-Jun-15 15:30N 47°47' E 035°09'2 3.5
2018-Jun-15 15:00N 47°49' E 035°10'0 0.5
2018-Jun-15 14:30N 47°48' E 035°09'0 1.0
2018-Jun-15 14:00N 47°49' E 035°10'0 1.0
2018-Jun-15 13:30N 47°48' E 035°10'0 0.9
2018-Jun-15 13:00N 47°49' E 035°10'0 0.3
2018-Jun-15 12:30N 47°49' E 035°10'0 0.0
2018-Jun-15 12:00N 47°49' E 035°10'0 0.2
2018-Jun-15 11:30N 47°49' E 035°10'0 0.5
2018-Jun-15 11:00N 47°49' E 035°10'0 0.2
2018-Jun-15 10:30N 47°49' E 035°10'0 0.5
2018-Jun-15 10:00N 47°49' E 035°10'0 0.0
2018-Jun-15 09:30N 47°49' E 035°10'0 0.0
2018-Jun-15 09:00N 47°49' E 035°10'0 0.0
2018-Jun-15 08:30N 47°49' E 035°10'0 0.0
2018-Jun-15 07:57N 47°49' E 035°10'0 0.0
2018-Jun-15 07:30N 47°49' E 035°10'0 0.0
2018-Jun-15 07:00N 47°49' E 035°10'0 0.0
2018-Jun-15 06:30N 47°49' E 035°10'0 0.0
2018-Jun-15 06:00N 47°49' E 035°10'0 0.0
2018-Jun-15 05:27N 47°49' E 035°10'0 0.0
2018-Jun-15 05:00N 47°49' E 035°10'0 0.0
2018-Jun-15 04:30N 47°49' E 035°10'0 0.0
2018-Jun-15 04:00N 47°49' E 035°10'0 0.0
2018-Jun-15 03:30N 47°49' E 035°10'0 0.0
2018-Jun-15 03:00N 47°49' E 035°10'0 0.0
2018-Jun-15 02:30N 47°49' E 035°10'0 0.0
2018-Jun-15 02:00N 47°49' E 035°10'0 0.0
2018-Jun-15 01:30N 47°49' E 035°10'0 0.0
2018-Jun-15 01:00N 47°49' E 035°10'0 0.0
2018-Jun-15 00:30N 47°49' E 035°10'0 0.0
2018-Jun-15 00:00N 47°49' E 035°10'0 0.0
2018-Jun-14 23:30N 47°49' E 035°10'0 0.0
2018-Jun-14 23:00N 47°49' E 035°10'0 0.0
2018-Jun-14 22:30N 47°49' E 035°10'0 0.0
2018-Jun-14 22:00N 47°49' E 035°10'0 0.0
2018-Jun-14 21:30N 47°49' E 035°10'0 0.0
2018-Jun-14 21:00N 47°49' E 035°10'0 0.0
2018-Jun-14 20:29N 47°49' E 035°10'0 0.0
2018-Jun-14 20:00N 47°49' E 035°10'0 0.0
2018-Jun-14 19:30N 47°49' E 035°10'0 0.0
2018-Jun-14 19:00N 47°49' E 035°10'0 0.0
2018-Jun-14 18:30N 47°49' E 035°10'0 0.0
2018-Jun-14 18:00N 47°49' E 035°10'0 0.0
2018-Jun-14 17:30N 47°49' E 035°10'0 0.0
2018-Jun-14 17:00N 47°49' E 035°10'0 0.0
2018-Jun-14 16:30N 47°49' E 035°10'0 0.0
2018-Jun-14 16:00N 47°49' E 035°10'0 0.0
2018-Jun-14 15:30N 47°49' E 035°10'0 0.0
2018-Jun-14 15:00N 47°49' E 035°10'0 0.0
2018-Jun-14 14:30N 47°49' E 035°10'0 0.0
2018-Jun-14 13:59N 47°49' E 035°10'0 0.0
2018-Jun-14 13:28N 47°49' E 035°10'0 0.0
2018-Jun-14 13:00N 47°49' E 035°10'0 0.0
2018-Jun-14 12:30N 47°49' E 035°10'0 0.0
2018-Jun-14 12:00N 47°49' E 035°10'0 0.0
2018-Jun-14 11:30N 47°49' E 035°10'0 0.0
2018-Jun-14 11:00N 47°49' E 035°10'0 0.0
2018-Jun-14 10:30N 47°49' E 035°10'0 0.2
2018-Jun-14 10:00N 47°49' E 035°10'0 0.0
2018-Jun-14 09:30N 47°49' E 035°10'0 0.0
2018-Jun-14 09:00N 47°49' E 035°10'0 0.0
2018-Jun-14 08:30N 47°49' E 035°10'0 0.0
2018-Jun-14 08:00N 47°49' E 035°10'0 0.0
2018-Jun-14 07:30N 47°49' E 035°10'0 0.4
2018-Jun-14 07:00N 47°49' E 035°10'0 0.0
2018-Jun-14 06:30N 47°49' E 035°10'0 0.0
2018-Jun-14 05:59N 47°49' E 035°10'0 0.5
2018-Jun-14 05:30N 47°49' E 035°10'0 0.0
2018-Jun-14 05:00N 47°49' E 035°10'0 0.0
2018-Jun-14 04:30N 47°49' E 035°10'0 0.0
2018-Jun-14 04:00N 47°49' E 035°10'0 0.0
2018-Jun-14 03:30N 47°49' E 035°10'0 0.0
2018-Jun-14 03:00N 47°49' E 035°10'0 0.0
2018-Jun-14 02:30N 47°49' E 035°10'0 0.0
2018-Jun-14 01:59N 47°49' E 035°10'0 0.0
2018-Jun-14 01:29N 47°49' E 035°10'0 0.0
2018-Jun-14 01:00N 47°49' E 035°10'0 0.0
2018-Jun-14 00:30N 47°49' E 035°10'0 0.0
2018-Jun-14 00:00N 47°49' E 035°10'0 0.0
2018-Jun-13 23:29N 47°49' E 035°10'0 0.0
2018-Jun-13 23:00N 47°49' E 035°10'0 0.0
2018-Jun-13 22:30N 47°49' E 035°10'0 0.0
2018-Jun-13 22:00N 47°49' E 035°10'0 0.0
2018-Jun-13 21:30N 47°49' E 035°10'0 0.0
2018-Jun-13 21:00N 47°49' E 035°10'0 0.0
2018-Jun-13 20:30N 47°49' E 035°10'0 0.0
2018-Jun-13 20:00N 47°49' E 035°10'0 0.0
2018-Jun-13 19:30N 47°49' E 035°10'0 0.0
2018-Jun-13 19:00N 47°49' E 035°10'0 0.0
2018-Jun-13 18:28N 47°49' E 035°10'0 0.0
2018-Jun-13 17:58N 47°49' E 035°10'0 0.0
2018-Jun-13 17:27N 47°49' E 035°10'0 0.5
2018-Jun-13 17:00N 47°48' E 035°10'0 0.1
2018-Jun-13 16:30N 47°48' E 035°10'0 0.5
2018-Jun-13 15:58N 47°48' E 035°10'0 1.0
2018-Jun-13 15:30N 47°49' E 035°10'0 0.2
2018-Jun-13 15:00N 47°48' E 035°10'0 0.4
2018-Jun-13 14:30N 47°48' E 035°10'0 0.0
2018-Jun-13 14:00N 47°48' E 035°10'0 0.5
2018-Jun-13 13:30N 47°49' E 035°10'0 0.0
2018-Jun-13 13:00N 47°49' E 035°10'0 0.2
2018-Jun-13 12:29N 47°49' E 035°10'0 0.0
2018-Jun-13 12:00N 47°49' E 035°10'0 0.0
2018-Jun-13 11:30N 47°49' E 035°10'0 0.3
2018-Jun-13 11:00N 47°49' E 035°10'0 0.3
2018-Jun-13 10:30N 47°49' E 035°10'0 0.0
2018-Jun-13 09:59N 47°49' E 035°10'0 0.0
2018-Jun-13 09:30N 47°49' E 035°10'0 0.0
2018-Jun-13 09:00N 47°49' E 035°10'0 0.0
2018-Jun-13 08:30N 47°49' E 035°10'0 0.0
2018-Jun-13 08:00N 47°49' E 035°10'0 0.0
2018-Jun-13 07:30N 47°49' E 035°10'0 0.0
2018-Jun-13 07:00N 47°49' E 035°10'0 0.0
2018-Jun-13 06:30N 47°49' E 035°10'0 0.0
2018-Jun-13 06:00N 47°49' E 035°10'0 0.0
2018-Jun-13 05:30N 47°49' E 035°10'0 0.0
2018-Jun-13 05:00N 47°49' E 035°10'0 0.0
2018-Jun-13 04:30N 47°49' E 035°10'0 0.0
2018-Jun-13 04:00N 47°49' E 035°10'0 0.0
2018-Jun-13 03:30N 47°49' E 035°10'0 0.0
2018-Jun-13 03:00N 47°49' E 035°10'0 0.0
2018-Jun-13 02:30N 47°49' E 035°10'0 0.0
2018-Jun-13 02:00N 47°49' E 035°10'0 0.0
2018-Jun-13 01:30N 47°49' E 035°10'0 0.0
2018-Jun-13 00:58N 47°49' E 035°10'0 0.0
2018-Jun-13 00:30N 47°49' E 035°10'0 0.0
2018-Jun-12 23:58N 47°49' E 035°10'0 0.0
2018-Jun-12 23:30N 47°49' E 035°10'0 0.0
2018-Jun-12 23:00N 47°49' E 035°10'0 0.0
2018-Jun-12 22:30N 47°49' E 035°10'0 0.5
2018-Jun-12 22:00N 47°48' E 035°10'0 0.5
2018-Jun-12 21:30N 47°49' E 035°10'0 0.0
2018-Jun-12 21:00N 47°49' E 035°10'0 0.0
2018-Jun-12 20:30N 47°49' E 035°10'0 0.0
2018-Jun-12 20:00N 47°49' E 035°10'0 0.0
2018-Jun-12 19:30N 47°49' E 035°10'0 0.0
2018-Jun-12 19:00N 47°49' E 035°10'0 0.0
2018-Jun-12 18:30N 47°49' E 035°10'0 0.0
2018-Jun-12 18:00N 47°49' E 035°10'0 0.0
2018-Jun-12 17:30N 47°49' E 035°10'0 0.0
2018-Jun-12 17:00N 47°49' E 035°10'0 0.0
2018-Jun-12 16:30N 47°49' E 035°10'0 0.0
2018-Jun-12 16:00N 47°49' E 035°10'0 0.0
2018-Jun-12 15:30N 47°49' E 035°10'0 0.0
2018-Jun-12 15:00N 47°49' E 035°10'0 0.0
2018-Jun-12 14:30N 47°49' E 035°10'0 0.0
2018-Jun-12 14:00N 47°49' E 035°10'0 0.0
2018-Jun-12 13:30N 47°49' E 035°10'0 0.0
2018-Jun-12 13:00N 47°49' E 035°10'0 0.3
2018-Jun-12 12:30N 47°49' E 035°10'0 0.6
2018-Jun-12 12:00N 47°49' E 035°10'0 0.1
2018-Jun-12 11:30N 47°49' E 035°10'0 0.6
2018-Jun-12 11:00N 47°49' E 035°10'0 0.0
2018-Jun-12 10:30N 47°49' E 035°10'0 0.3
2018-Jun-12 10:00N 47°49' E 035°10'0 0.2
2018-Jun-12 09:30N 47°49' E 035°10'0 0.2
2018-Jun-12 09:00N 47°49' E 035°10'0 0.0
2018-Jun-12 08:30N 47°49' E 035°10'0 0.0
2018-Jun-12 08:00N 47°49' E 035°10'0 0.0
2018-Jun-12 07:30N 47°49' E 035°10'0 0.0
2018-Jun-12 07:00N 47°49' E 035°10'0 0.4
2018-Jun-12 06:30N 47°48' E 035°10'0 0.0
2018-Jun-12 06:00N 47°48' E 035°10'0 0.3
2018-Jun-12 05:30N 47°49' E 035°10'0 0.0
2018-Jun-12 05:00N 47°49' E 035°10'0 0.0
2018-Jun-12 04:30N 47°49' E 035°10'0 0.0
2018-Jun-12 03:59N 47°49' E 035°10'0 0.0
2018-Jun-12 03:30N 47°49' E 035°10'0 0.0
2018-Jun-12 03:00N 47°49' E 035°10'0 0.0
2018-Jun-12 02:30N 47°49' E 035°10'0 0.0
2018-Jun-12 02:00N 47°49' E 035°10'0 0.0
2018-Jun-12 01:29N 47°49' E 035°10'0 0.0
2018-Jun-12 01:00N 47°49' E 035°10'0 0.0
2018-Jun-12 00:30N 47°49' E 035°10'0 0.0
2018-Jun-12 00:00N 47°49' E 035°10'0 0.0
2018-Jun-11 23:30N 47°49' E 035°10'0 0.1
2018-Jun-11 23:00N 47°49' E 035°10'0 0.1
2018-Jun-11 22:30N 47°49' E 035°10'0 0.0
2018-Jun-11 22:00N 47°49' E 035°10'0 0.0
2018-Jun-11 21:30N 47°49' E 035°10'0 0.0
2018-Jun-11 21:00N 47°49' E 035°10'0 0.0
2018-Jun-11 20:30N 47°49' E 035°10'0 0.0
2018-Jun-11 20:00N 47°49' E 035°10'0 0.0
2018-Jun-11 19:30N 47°49' E 035°10'0 0.0
2018-Jun-11 19:00N 47°49' E 035°10'0 0.0
2018-Jun-11 18:30N 47°49' E 035°10'0 0.0
2018-Jun-11 18:00N 47°49' E 035°10'0 0.0
2018-Jun-11 17:30N 47°49' E 035°10'0 0.0
2018-Jun-11 17:00N 47°49' E 035°10'0 0.0
2018-Jun-11 16:30N 47°49' E 035°10'0 0.0
2018-Jun-11 16:00N 47°49' E 035°10'0 0.0
2018-Jun-11 15:30N 47°49' E 035°10'0 0.0
2018-Jun-11 14:59N 47°49' E 035°10'0 0.0
2018-Jun-11 14:30N 47°49' E 035°10'0 0.0
2018-Jun-11 14:00N 47°49' E 035°10'0 0.0
2018-Jun-11 13:30N 47°49' E 035°10'0 0.3
2018-Jun-11 13:00N 47°49' E 035°10'0 0.2
2018-Jun-11 12:30N 47°49' E 035°10'0 0.0
2018-Jun-11 12:00N 47°49' E 035°10'0 0.2
2018-Jun-11 11:30N 47°49' E 035°10'0 0.2
2018-Jun-11 11:00N 47°49' E 035°10'0 0.5
2018-Jun-11 10:30N 47°49' E 035°10'0 0.1
2018-Jun-11 10:00N 47°49' E 035°10'0 0.0
2018-Jun-11 09:26N 47°49' E 035°10'0 0.0
2018-Jun-11 09:00N 47°49' E 035°10'0 0.0
2018-Jun-11 08:30N 47°49' E 035°10'0 0.0
2018-Jun-11 08:00N 47°49' E 035°10'0 0.0
2018-Jun-11 07:30N 47°49' E 035°10'0 0.0
2018-Jun-11 07:00N 47°49' E 035°10'0 0.0
2018-Jun-11 06:30N 47°49' E 035°10'0 0.0
2018-Jun-11 06:00N 47°49' E 035°10'0 0.0
2018-Jun-11 05:30N 47°49' E 035°10'0 0.0
2018-Jun-11 05:00N 47°49' E 035°10'0 0.0
2018-Jun-11 04:30N 47°49' E 035°10'0 0.0
2018-Jun-11 04:00N 47°49' E 035°10'0 0.0
2018-Jun-11 03:30N 47°49' E 035°10'0 0.0
2018-Jun-11 03:00N 47°49' E 035°10'0 0.0
2018-Jun-11 02:29N 47°49' E 035°10'0 0.0
2018-Jun-11 01:57N 47°49' E 035°10'0 0.0
2018-Jun-11 01:30N 47°49' E 035°10'0 0.0
2018-Jun-11 01:00N 47°49' E 035°10'0 0.0
2018-Jun-11 00:30N 47°49' E 035°10'0 0.0
2018-Jun-11 00:00N 47°49' E 035°10'0 0.0
2018-Jun-10 23:30N 47°49' E 035°10'0 0.0
2018-Jun-10 23:00N 47°49' E 035°10'0 0.0
2018-Jun-10 22:30N 47°49' E 035°10'0 0.0
2018-Jun-10 22:00N 47°49' E 035°10'0 0.2
2018-Jun-10 21:30N 47°49' E 035°10'0 0.2
2018-Jun-10 21:00N 47°49' E 035°10'0 0.0
2018-Jun-10 20:30N 47°49' E 035°10'  

Dump ship's entire track history